Cabrerets ULM

FR-0337 · Lot, Occitanie, 法国

罗盘
风向 的
风: 1 kt, 1 beaufort

添加一条跑道以查看侧风和逆风信息。

添置 跑道
0 1.000 2.000 3.000 4.000 5.000
SCT 1.200 ft
SCT 1.700 ft
OVC 3.400 ft
METAR LFSL 022230Z AUTO VRB01KT 9000 SCT012 SCT017 OVC034 03/02 Q1012

METAR Cabrerets ULM - FR-0337

Cabrerets ULM是,法国中的小机场。 视场标高为1.177 ft。 该领域的国际民航组织标志是FR-0337.

这份报告是针对2022年12月2日 23:30, 当地时间在Brive-Souillac进行的。

机场观察

可变方向的风很小或没有风。

可见度为9 km。

有疏云,零星散落的云朵在1.200 ft的高度, 疏云,零星散落的云朵在1.700 ft的高度 和 乌云密布在3.400 ft的高度。 破损或更高的上限为3.400 ft。

温度和风寒是3 °C。 露点为2 °C,相对湿度为93%。 海平面上的气压为1012 hPa (QNH)。

白天

今天,太阳从08:11升起,在17:15降落。 这适用于Cabrerets ULM,世界夏令时可能有所不同。 当地时间与世界标准时间之间的时差为+1 小时。 当前,没有夏令时有效。

公司介绍

我们没有关于这个机场的公司信息。

体会

到Vliegles.nl去找飞行课程,跳伞和其他飞行体验。 浏览页面,了解Cabrerets ULM附近所有可用的活动。 你也可以使用搜索功能来寻找你所在地附近的特定飞行课程、跳伞或其他飞行体验。

乌云

1.200 ft SCT 疏云,零星散落的云朵
1.700 ft SCT 疏云,零星散落的云朵
3.400 ft OVC 乌云密布

温度 & 天气

温度 3 °C
露点 2 °C
相对湿度 93%
Kp-index 2 (0-9)

白天

日出
08:13 (8:14)
中午
12:43
日落
17:13

小工具

你想在你的网站上有一个关于Cabrerets ULM的当前航空天气(METAR)的小部件吗?

显示HTML代码

我们和第三方通过cookies跟踪您在我们网站上的互联网行为。如果你继续,我们认为你同意我们的饼干政策